KFZY

Oswego County Airport

Fulton, New York, USA
METAR KFZY 271154Z AUTO 14004KT 10SM OVC120 21/16 A2994 RMK AO2 SLP137 T02060161 10206 20161 53016
Observed Flight Rules
May-27 @ 11:54 UTC (10 minutes ago) Visual Flight Rules
Wind Visibility Clouds
140° at 4 knots 10 miles
  • Overcast at 12,000' AGL
Temperatures Readings
Current 21°C / 70°F
Dewpoint 16°C / 61°F
Humidity 73%
Altimeter 29.94" Hg
Pressure 1013.7 hPa
Elevation 138
METAR KFZY 271154Z AUTO 14004KT 10SM OVC120 21/16 A2994 RMK AO2 SLP137 T02060161 10206 20161 53016
Observed Flight Rules
May-27 @ 11:54 UTC
(10 minutes ago)
VFR
Wind Visibility
140° at 4 knots 10 miles
Clouds
  • Overcast at 12,000' AGL
Temperature Dewpoint
21°C / 70°F 16°C / 61°F
Humidity Altimeter Pressure
73% 29.94" Hg 1013.7 hPa